Sherman, South Dakota
Current Conditions -  °F | °C
As of 1:56 AM on Saturday 29 Nov 2014 (Local Time) from KFSD Reporting Station
Haze Haze  
Wind Chill: 11°   Ceiling: Unl
Heat Index: 20°   Visibility: 6mi
Dew Point: 18°   Wind: 7mph
Humidity: 92%   Direction: 90°E
Pressure: 29.49"   Gusts: NA
Location:  43.7606°N, 96.5516°W
Report Text: KFSD 290756Z AUTO 09006KT 6SM BR CLR M07/M08 A2949 RMK AO2 SLP007 I1000 T10671078
Loading
Personal Weather Stations






























Interactive Weather Map New forecast layout! Learn more

10-Day Weather Forecast

Advertisements
Track Severe Weather on mobile